Time;durP1;ratioP1;P1;durP2;ratioP2;P2;SDS_P1;SDS_P2;PMS_P1;PMS_P2;Temp;Humidity;BMP_temperature;BMP_pressure;BME280_temperature;BME280_humidity;BME280_pressure;Samples;Min_cycle;Max_cycle;Signal;HPM_P1;HPM_P2
2022/03/02 00:02:12;;;;;;;11.55;9.00;;;;;;;16.05;30.08;94065.66;4883475;29;20533;-88
2022/03/02 00:04:37;;;;;;;12.68;7.97;;;;;;;16.12;29.72;94064.50;4894965;29;20039;-88
2022/03/02 00:07:03;;;;;;;11.13;7.10;;;;;;;16.07;29.84;94067.91;4890484;29;20048;-88
2022/03/02 00:09:29;;;;;;;10.43;7.82;;;;;;;16.06;29.62;94067.16;4890428;29;20745;-88
2022/03/02 00:11:54;;;;;;;8.25;6.40;;;;;;;16.04;30.05;94063.41;4879969;29;20040;-91
2022/03/02 00:14:20;;;;;;;9.48;7.93;;;;;;;16.03;29.68;94059.94;4890277;29;20047;-87
2022/03/02 00:16:45;;;;;;;9.35;7.18;;;;;;;16.03;29.85;94057.22;4850068;29;20059;-87
2022/03/02 00:19:10;;;;;;;9.50;7.22;;;;;;;16.01;29.55;94048.78;4863541;29;20040;-91
2022/03/02 00:21:36;;;;;;;11.13;7.32;;;;;;;16.02;29.82;94052.97;4883256;29;20040;-93
2022/03/02 00:24:03;;;;;;;10.98;7.32;;;;;;;16.04;29.90;94055.22;4880297;29;20074;-92
2022/03/02 00:26:30;;;;;;;10.68;7.80;;;;;;;16.04;29.75;94057.97;4878048;29;20184;-90
2022/03/02 00:28:55;;;;;;;10.20;7.45;;;;;;;16.07;29.47;94055.03;4880908;29;20049;-92
2022/03/02 00:31:21;;;;;;;10.68;7.43;;;;;;;16.07;29.55;94054.28;4866511;29;20052;-87
2022/03/02 00:33:46;;;;;;;11.20;7.57;;;;;;;16.05;29.69;94051.28;4878005;29;20136;-89
2022/03/02 00:36:12;;;;;;;9.93;6.95;;;;;;;16.02;29.71;94052.97;4883133;29;20040;-88
2022/03/02 00:38:37;;;;;;;10.07;6.75;;;;;;;16.02;29.64;94046.81;4921281;29;20078;-87
2022/03/02 00:41:03;;;;;;;10.50;6.85;;;;;;;16.01;29.73;94045.31;4899122;29;20039;-89
2022/03/02 00:43:28;;;;;;;8.90;6.70;;;;;;;16.06;29.75;94048.06;4934191;29;20044;-93
2022/03/02 00:45:54;;;;;;;11.27;8.57;;;;;;;16.03;29.92;94034.66;4892372;29;20047;-89
2022/03/02 00:48:19;;;;;;;9.90;7.18;;;;;;;16.05;29.26;94032.19;4882134;28;20668;-88
2022/03/02 00:50:45;;;;;;;10.45;7.60;;;;;;;16.06;29.66;94026.25;4912423;29;20036;-93
2022/03/02 00:53:11;;;;;;;7.68;6.45;;;;;;;16.03;29.73;94013.56;4915131;28;20515;-87
2022/03/02 00:55:40;;;;;;;10.75;7.38;;;;;;;16.02;29.49;94022.25;4945030;29;20048;-89
2022/03/02 00:58:05;;;;;;;9.82;6.90;;;;;;;16.04;29.58;94015.06;4934535;29;20046;-88
2022/03/02 01:00:31;;;;;;;9.63;7.15;;;;;;;16.02;29.70;94031.16;4904285;29;20055;-87
2022/03/02 01:02:56;;;;;;;8.82;6.18;;;;;;;16.00;29.81;94030.91;4879009;29;20043;-87
2022/03/02 01:05:22;;;;;;;9.27;7.05;;;;;;;16.04;29.67;94025.97;4903690;29;20047;-86
2022/03/02 01:07:47;;;;;;;10.05;6.78;;;;;;;15.99;29.59;94023.97;4932896;29;20159;-93
2022/03/02 01:10:12;;;;;;;10.43;7.80;;;;;;;16.03;29.55;94013.56;4918278;29;20422;-94
2022/03/02 01:12:39;;;;;;;8.73;6.55;;;;;;;16.00;29.80;94011.09;4906017;29;20496;-87
2022/03/02 01:15:05;;;;;;;10.25;6.50;;;;;;;16.03;29.54;94010.09;4886410;29;20589;-88
2022/03/02 01:17:31;;;;;;;9.80;7.47;;;;;;;16.00;29.78;94008.34;4855923;29;20500;-90
2022/03/02 01:19:56;;;;;;;8.00;6.57;;;;;;;15.99;29.63;94001.41;4897626;29;20104;-87
2022/03/02 01:22:21;;;;;;;8.38;6.85;;;;;;;15.99;29.39;94001.41;4896677;29;20595;-91
2022/03/02 01:24:47;;;;;;;9.23;6.78;;;;;;;16.03;29.67;93994.50;4909612;29;20306;-88
2022/03/02 01:27:12;;;;;;;9.15;7.20;;;;;;;16.00;29.55;93986.53;4894103;29;20051;-91
2022/03/02 01:29:38;;;;;;;11.20;7.60;;;;;;;16.00;29.57;93983.81;4911796;29;21365;-87
2022/03/02 01:32:04;;;;;;;9.98;7.57;;;;;;;15.97;29.76;93982.03;4878410;29;20191;-87
2022/03/02 01:34:30;;;;;;;8.80;6.13;;;;;;;15.98;29.65;93984.28;4904052;29;20043;-87
2022/03/02 01:36:55;;;;;;;9.68;6.22;;;;;;;15.96;29.79;93981.28;4909682;29;20047;-87
2022/03/02 01:39:21;;;;;;;9.15;6.70;;;;;;;15.95;29.66;93966.16;4907151;29;20071;-91
2022/03/02 01:41:46;;;;;;;10.20;7.28;;;;;;;15.96;29.57;93969.63;4907737;29;20053;-87
2022/03/02 01:44:11;;;;;;;10.30;7.18;;;;;;;15.96;29.40;93967.66;4864241;29;20056;-87
2022/03/02 01:46:37;;;;;;;8.88;6.20;;;;;;;15.96;29.56;93962.22;4859913;29;20053;-87
2022/03/02 01:49:03;;;;;;;8.57;6.22;;;;;;;15.99;29.76;93958.53;4869014;29;20036;-91
2022/03/02 01:51:28;;;;;;;9.38;6.78;;;;;;;15.97;29.69;93952.06;4911560;29;20380;-93
2022/03/02 01:53:54;;;;;;;7.82;5.97;;;;;;;15.96;29.58;93947.81;4928062;29;20055;-88
2022/03/02 01:56:19;;;;;;;9.52;6.82;;;;;;;15.94;29.66;93942.84;4900042;29;20047;-89
2022/03/02 01:58:45;;;;;;;8.10;5.88;;;;;;;15.95;29.44;93933.44;4897861;29;20292;-87
2022/03/02 02:01:10;;;;;;;11.63;8.10;;;;;;;15.94;29.46;93937.41;4893917;29;20874;-87
2022/03/02 02:03:36;;;;;;;7.93;6.05;;;;;;;15.95;29.33;93935.41;4883192;29;20046;-92
2022/03/02 02:06:01;;;;;;;8.00;6.07;;;;;;;15.95;29.43;93933.44;4895582;29;20503;-89
2022/03/02 02:08:27;;;;;;;9.02;6.95;;;;;;;15.93;29.53;93919.53;4883976;29;20036;-91
2022/03/02 02:10:55;;;;;;;8.32;5.78;;;;;;;15.91;29.41;93926.72;4880284;29;20075;-93
2022/03/02 02:13:21;;;;;;;7.05;5.85;;;;;;;15.94;29.56;93920.28;4899007;29;20590;-87
2022/03/02 02:15:46;;;;;;;10.13;6.68;;;;;;;15.95;29.54;93919.06;4898053;29;20094;-88
2022/03/02 02:18:12;;;;;;;8.43;6.43;;;;;;;15.96;29.33;93921.31;4877607;28;20066;-87
2022/03/02 02:20:38;;;;;;;10.32;6.45;;;;;;;15.94;29.57;93923.75;4910338;29;20059;-89
2022/03/02 02:23:04;;;;;;;9.52;6.07;;;;;;;15.93;29.47;93927.72;4901428;29;20134;-87
2022/03/02 02:25:29;;;;;;;9.00;6.22;;;;;;;15.93;30.02;93927.72;4890551;29;20044;-91
2022/03/02 02:27:55;;;;;;;9.65;7.00;;;;;;;15.94;29.41;93923.03;4887879;29;20048;-90
2022/03/02 02:30:21;;;;;;;9.73;6.07;;;;;;;15.94;29.47;93928.47;4879552;29;20807;-88
2022/03/02 02:32:46;;;;;;;9.95;6.68;;;;;;;15.95;29.56;93921.78;4859242;29;20462;-87
2022/03/02 02:35:12;;;;;;;7.88;5.82;;;;;;;15.93;29.77;93918.78;4870129;29;20040;-88
2022/03/02 02:37:37;;;;;;;10.73;7.50;;;;;;;15.96;29.96;93918.59;4873086;29;20048;-89
2022/03/02 02:40:07;;;;;;;9.40;6.57;;;;;;;15.92;29.39;93920.78;4870180;29;20048;-87
2022/03/02 02:42:33;;;;;;;8.27;5.85;;;;;;;15.94;29.57;93926.50;4887027;29;20036;-91
2022/03/02 02:44:58;;;;;;;10.02;6.60;;;;;;;15.94;29.20;93918.31;4886356;29;20044;-93
2022/03/02 02:47:24;;;;;;;9.43;7.00;;;;;;;15.94;29.39;93921.03;4870240;29;20044;-89
2022/03/02 02:49:49;;;;;;;8.60;6.45;;;;;;;15.93;29.53;93918.78;4872306;29;20048;-92
2022/03/02 02:52:15;;;;;;;9.30;6.28;;;;;;;15.95;29.50;93921.78;4886098;29;20408;-90
2022/03/02 02:54:41;;;;;;;7.20;5.65;;;;;;;15.89;29.58;93916.28;4886684;29;20467;-89
2022/03/02 02:57:06;;;;;;;10.80;6.43;;;;;;;15.95;29.47;93908.16;4887332;29;20599;-86
2022/03/02 02:59:32;;;;;;;9.65;6.53;;;;;;;15.90;29.34;93911.56;4872301;29;20040;-87
2022/03/02 03:01:57;;;;;;;8.70;5.85;;;;;;;15.92;29.70;93911.84;4840885;29;20048;-88
2022/03/02 03:04:22;;;;;;;10.55;7.25;;;;;;;15.92;29.52;93909.88;4880671;29;20040;-92
2022/03/02 03:06:48;;;;;;;10.65;8.02;;;;;;;15.91;29.66;93908.38;4873816;29;20041;-91
2022/03/02 03:09:16;;;;;;;9.05;6.80;;;;;;;15.93;29.23;93916.06;4886974;29;20122;-89
2022/03/02 03:11:41;;;;;;;11.75;8.20;;;;;;;15.95;29.49;93908.91;4871536;29;20275;-89
2022/03/02 03:14:11;;;;;;;9.10;7.32;;;;;;;15.93;29.76;93905.91;4885804;29;20032;-88
2022/03/02 03:16:36;;;;;;;9.05;6.35;;;;;;;15.97;29.32;93917.34;4886658;29;20047;-94
2022/03/02 03:19:02;;;;;;;8.35;5.93;;;;;;;15.90;29.40;93917.03;4887015;29;20495;-92
2022/03/02 03:21:28;;;;;;;9.45;6.88;;;;;;;15.97;29.27;93919.34;4863248;29;20040;-89
2022/03/02 03:23:53;;;;;;;6.78;5.10;;;;;;;15.92;29.38;93907.13;4903060;29;20496;-92
2022/03/02 03:26:18;;;;;;;7.78;6.20;;;;;;;15.93;29.24;93903.19;4888294;29;20579;-92
2022/03/02 03:28:44;;;;;;;8.27;5.93;;;;;;;15.91;29.34;93913.81;4887275;29;20052;-87
2022/03/02 03:31:09;;;;;;;11.90;8.02;;;;;;;15.89;29.53;93908.09;4862939;29;20049;-88
2022/03/02 03:33:35;;;;;;;8.35;5.70;;;;;;;15.90;29.42;93908.84;4868073;29;20385;-92
2022/03/02 03:36:00;;;;;;;6.60;5.43;;;;;;;15.90;29.51;93911.56;4897340;29;20048;-87
2022/03/02 03:38:26;;;;;;;8.48;6.10;;;;;;;15.89;29.71;93904.63;4894188;29;20055;-93
2022/03/02 03:40:51;;;;;;;7.65;6.03;;;;;;;15.90;29.42;93906.13;4894390;29;20044;-87
2022/03/02 03:43:17;;;;;;;9.57;6.43;;;;;;;15.89;29.58;93901.91;4884389;29;20078;-87
2022/03/02 03:45:42;;;;;;;9.20;6.70;;;;;;;15.89;29.32;93899.16;4878665;29;20052;-90
2022/03/02 03:48:07;;;;;;;9.88;6.22;;;;;;;15.92;29.13;93890.78;4848960;29;20072;-90
2022/03/02 03:50:33;;;;;;;10.80;6.70;;;;;;;15.89;29.27;93897.19;4871881;29;20284;-87
2022/03/02 03:52:58;;;;;;;12.00;8.15;;;;;;;15.89;29.20;93888.25;4884574;29;20071;-90
2022/03/02 03:55:24;;;;;;;9.30;6.93;;;;;;;15.88;29.19;93884.03;4886423;29;20265;-89
2022/03/02 03:57:49;;;;;;;9.60;5.43;;;;;;;15.87;29.46;93883.28;4872846;29;20096;-87
2022/03/02 04:00:16;;;;;;;7.10;5.68;;;;;;;15.88;28.99;93884.03;4888243;29;20048;-86
2022/03/02 04:02:42;;;;;;;8.93;5.80;;;;;;;15.91;29.50;93883.09;4845804;29;20163;-87
2022/03/02 04:05:08;;;;;;;12.23;8.00;;;;;;;15.87;29.34;93869.66;4843292;29;20044;-90
2022/03/02 04:07:33;;;;;;;8.20;6.10;;;;;;;15.91;29.33;93881.09;4869969;29;20036;-90
2022/03/02 04:09:59;;;;;;;8.63;6.63;;;;;;;15.87;29.23;93888.00;4855098;29;20059;-89
2022/03/02 04:12:24;;;;;;;10.48;6.43;;;;;;;15.91;29.46;93883.09;4851974;29;20048;-93
2022/03/02 04:14:49;;;;;;;6.75;5.60;;;;;;;15.87;29.29;93879.81;4850509;29;20351;-87
2022/03/02 04:17:15;;;;;;;7.00;5.38;;;;;;;15.85;29.53;93882.28;4833157;29;20155;-87
2022/03/02 04:19:40;;;;;;;8.25;5.93;;;;;;;15.86;29.04;93879.06;4837522;29;20454;-89
2022/03/02 04:22:06;;;;;;;8.32;5.68;;;;;;;15.84;29.09;93878.81;4866568;29;20728;-94
2022/03/02 04:24:32;;;;;;;7.45;5.85;;;;;;;15.89;29.14;93877.34;4855415;29;20044;-88
2022/03/02 04:26:57;;;;;;;10.00;6.78;;;;;;;15.89;29.47;93877.34;4886260;29;20044;-92
2022/03/02 04:29:22;;;;;;;8.05;5.63;;;;;;;15.87;29.15;93883.28;4899097;29;20512;-89
2022/03/02 04:31:48;;;;;;;7.13;5.63;;;;;;;15.86;28.84;93889.22;4842304;29;20670;-88
2022/03/02 04:34:13;;;;;;;7.55;5.75;;;;;;;15.88;29.42;93884.78;4888831;29;20044;-92
2022/03/02 04:36:39;;;;;;;7.57;5.53;;;;;;;15.86;29.41;93878.31;4901288;29;20860;-87
2022/03/02 04:39:04;;;;;;;8.45;6.32;;;;;;;15.86;29.49;93881.06;4885226;29;20044;-88
2022/03/02 04:41:29;;;;;;;9.63;6.13;;;;;;;15.86;28.96;93878.31;4900654;29;20048;-88
2022/03/02 04:43:55;;;;;;;9.18;6.50;;;;;;;15.91;29.17;93885.81;4886459;29;20043;-92
2022/03/02 04:46:20;;;;;;;6.65;4.90;;;;;;;15.93;29.48;93886.06;4874446;29;20040;-87
2022/03/02 04:48:46;;;;;;;7.32;5.65;;;;;;;15.88;29.42;93879.34;4911532;29;20040;-92
2022/03/02 04:51:11;;;;;;;10.30;5.70;;;;;;;15.87;29.36;93875.13;4886332;29;20139;-85
2022/03/02 04:53:37;;;;;;;10.10;5.88;;;;;;;15.85;29.34;93869.41;4887992;29;20169;-91
2022/03/02 04:56:02;;;;;;;7.60;5.57;;;;;;;15.89;29.42;93872.66;4894072;29;20063;-91
2022/03/02 04:58:28;;;;;;;11.23;5.30;;;;;;;15.85;29.21;93872.13;4895974;29;20091;-87
2022/03/02 05:00:53;;;;;;;8.07;6.38;;;;;;;15.85;29.44;93871.38;4892149;29;20044;-86
2022/03/02 05:03:19;;;;;;;7.90;5.82;;;;;;;15.83;29.03;93877.31;4865335;29;20406;-87
2022/03/02 05:05:44;;;;;;;5.93;4.93;;;;;;;15.82;28.64;93866.88;4888906;29;20052;-87
2022/03/02 05:08:10;;;;;;;6.45;5.07;;;;;;;15.87;29.40;93868.91;4889311;29;20052;-89
2022/03/02 05:10:35;;;;;;;7.13;5.03;;;;;;;15.85;29.35;93865.91;4876812;29;20411;-88
2022/03/02 05:13:03;;;;;;;7.07;5.38;;;;;;;15.84;29.16;93858.97;4888024;29;20047;-89
2022/03/02 05:15:30;;;;;;;7.18;4.85;;;;;;;15.80;29.15;93858.47;4887879;29;20186;-86
2022/03/02 05:17:56;;;;;;;6.90;5.55;;;;;;;15.86;29.39;93860.00;4878360;29;20051;-87
2022/03/02 05:20:22;;;;;;;7.50;5.55;;;;;;;15.84;29.20;93853.53;4899871;29;25248;-88
2022/03/02 05:22:48;;;;;;;7.35;5.40;;;;;;;15.82;29.10;93858.69;4883299;29;20060;-87
2022/03/02 05:25:13;;;;;;;6.82;5.50;;;;;;;15.83;28.96;93862.94;4874049;29;20053;-85
2022/03/02 05:27:39;;;;;;;8.65;6.32;;;;;;;15.90;29.19;93863.25;4829403;29;20045;-86
2022/03/02 05:30:05;;;;;;;13.30;6.05;;;;;;;15.88;29.27;93862.22;4826114;29;20054;-85
2022/03/02 05:32:30;;;;;;;11.00;5.95;;;;;;;15.87;29.03;93850.56;4782665;29;20069;-87
2022/03/02 05:34:56;;;;;;;9.80;5.22;;;;;;;15.92;29.29;93854.59;4817645;29;20147;-91
2022/03/02 05:37:21;;;;;;;15.93;6.22;;;;;;;15.96;29.32;93857.84;4804588;29;20489;-85
2022/03/02 05:39:47;;;;;;;55.78;32.95;;;;;;;16.01;29.71;93851.69;4821871;29;20050;-92
2022/03/02 05:42:12;;;;;;;41.90;24.42;;;;;;;16.06;30.20;93857.19;4816582;29;20058;-89
2022/03/02 05:44:38;;;;;;;21.67;14.85;;;;;;;16.09;29.34;93848.03;4816433;29;20060;-91
2022/03/02 05:47:04;;;;;;;11.38;8.38;;;;;;;16.06;29.14;93857.19;4812153;29;20522;-90
2022/03/02 05:49:30;;;;;;;29.45;17.27;;;;;;;16.09;29.47;93855.47;4829851;29;20134;-88
2022/03/02 05:51:57;;;;;;;17.65;10.18;;;;;;;16.08;28.88;93864.88;4794987;29;20062;-87
2022/03/02 05:54:22;;;;;;;17.58;9.88;;;;;;;15.95;26.91;93868.00;4822382;29;20054;-93
2022/03/02 05:56:48;;;;;;;27.17;8.15;;;;;;;15.74;24.96;93861.13;4806115;29;20058;-89
2022/03/02 05:59:14;;;;;;;36.28;8.93;;;;;;;15.64;23.90;93866.00;4860692;29;20404;-89
2022/03/02 06:01:44;;;;;;;41.30;19.88;;;;;;;15.63;24.54;93866.47;4860986;29;20033;-86
2022/03/02 06:04:10;;;;;;;50.03;15.48;;;;;;;15.67;24.88;93865.03;4867317;29;20202;-93
2022/03/02 06:06:36;;;;;;;36.40;15.93;;;;;;;15.74;25.54;93861.13;4889563;29;20040;-92
2022/03/02 06:09:03;;;;;;;46.75;17.80;;;;;;;15.72;27.18;93864.34;4885079;29;20507;-91
2022/03/02 06:11:29;;;;;;;47.97;18.48;;;;;;;15.80;27.16;93870.13;4900151;29;20102;-90
2022/03/02 06:13:56;;;;;;;62.92;26.90;;;;;;;15.84;28.20;93867.16;4878567;29;20059;-87
2022/03/02 06:16:25;;;;;;;61.78;27.88;;;;;;;15.82;27.78;93867.63;4892502;29;20754;-89
2022/03/02 06:18:51;;;;;;;74.85;31.65;;;;;;;15.88;27.61;93862.97;4918521;29;20123;-91
2022/03/02 06:21:43;;;;;;;71.60;30.00;;;;;;;15.88;28.25;93860.25;4876852;29;20044;-93
2022/03/02 06:24:21;;;;;;;62.67;30.27;;;;;;;15.91;28.00;93869.44;4883652;29;20049;-90
2022/03/02 06:26:46;;;;;;;66.78;31.15;;;;;;;15.91;27.81;93862.03;4887166;23;20051;-95
2022/03/02 06:29:12;;;;;;;73.03;28.83;;;;;;;15.94;28.26;93868.50;4902701;28;20118;-92
2022/03/02 06:31:37;;;;;;;65.20;27.30;;;;;;;16.01;28.18;93868.06;4921749;28;20539;-90
2022/03/02 06:34:03;;;;;;;58.03;28.10;;;;;;;16.01;27.99;93862.59;4901088;28;20177;-90
2022/03/02 06:36:28;;;;;;;50.53;27.73;;;;;;;16.02;27.96;93869.56;4895822;28;20058;-88
2022/03/02 06:38:53;;;;;;;52.92;25.10;;;;;;;16.00;28.19;93869.28;4892009;29;20423;-90
2022/03/02 06:41:28;;;;;;;47.53;24.65;;;;;;;15.99;28.23;93863.09;4880652;29;20075;-92
2022/03/02 06:44:11;;;;;;;54.75;24.75;;;;;;;16.02;28.24;93858.66;4895324;29;20534;-90
2022/03/02 06:46:40;;;;;;;46.58;22.13;;;;;;;15.91;26.50;93855.81;4896760;29;20111;-90
2022/03/02 06:49:18;;;;;;;47.42;22.73;;;;;;;15.88;26.37;93857.53;4886244;29;20107;-91
2022/03/02 06:51:43;;;;;;;51.55;25.00;;;;;;;15.89;26.38;93859.03;4890871;29;20059;-92
2022/03/02 06:54:10;;;;;;;41.60;21.65;;;;;;;15.91;27.24;93864.00;4887067;29;20070;-88
2022/03/02 06:56:45;;;;;;;48.67;22.83;;;;;;;15.95;27.05;93857.09;4882303;29;20048;-89
2022/03/02 06:59:12;;;;;;;51.97;26.15;;;;;;;16.00;28.01;93850.19;4883678;29;20485;-89
2022/03/02 07:01:37;;;;;;;83.53;40.97;;;;;;;16.08;27.82;93859.41;4904435;29;20044;-90
2022/03/02 07:04:04;;;;;;;86.15;43.28;;;;;;;16.06;27.65;93859.91;4882225;29;20513;-92
2022/03/02 07:06:30;;;;;;;184.50;56.13;;;;;;;16.07;28.04;93853.22;4914156;29;20523;-93
2022/03/02 07:08:56;;;;;;;119.70;50.30;;;;;;;16.09;27.64;93853.47;4901754;29;20343;-90
2022/03/02 07:11:21;;;;;;;127.63;60.85;;;;;;;16.12;27.94;93849.03;4942829;29;20036;-90
2022/03/02 07:13:47;;;;;;;137.70;67.00;;;;;;;16.08;27.82;93853.97;4923293;29;20399;-90
2022/03/02 07:16:14;;;;;;;196.77;93.28;;;;;;;16.10;28.12;93852.25;4912645;29;20051;-87
2022/03/02 07:18:41;;;;;;;251.75;109.63;;;;;;;16.21;28.71;93854.31;4936045;29;20043;-92
2022/03/02 07:21:12;;;;;;;213.52;102.15;;;;;;;16.26;28.86;93853.59;4896702;29;20048;-93
2022/03/02 07:24:10;;;;;;;204.57;102.88;;;;;;;16.30;28.64;93848.66;4867514;29;20057;-92
2022/03/02 07:26:35;;;;;;;189.90;95.32;;;;;;;16.32;29.25;93850.91;4848363;29;20044;-90
2022/03/02 07:29:01;;;;;;;155.23;77.15;;;;;;;16.35;28.85;93841.75;4861097;29;20052;-93
2022/03/02 07:31:26;;;;;;;148.82;71.70;;;;;;;16.39;29.54;93840.31;4876753;29;20119;-91
2022/03/02 07:33:53;;;;;;;122.38;66.10;;;;;;;16.38;28.68;93846.25;4861589;29;20061;-86
2022/03/02 07:36:23;;;;;;;142.52;67.07;;;;;;;16.40;28.74;93839.06;4844904;29;20536;-93
2022/03/02 07:38:48;;;;;;;123.95;64.22;;;;;;;16.36;29.35;93846.72;4831493;29;20050;-89
2022/03/02 07:41:15;;;;;;;137.27;66.07;;;;;;;16.37;28.21;93836.56;4829342;29;20485;-91
2022/03/02 07:43:42;;;;;;;116.10;62.95;;;;;;;16.39;27.78;93840.31;4859782;29;20041;-90
2022/03/02 07:46:09;;;;;;;131.38;59.08;;;;;;;16.32;27.40;93838.00;4829137;29;20077;-88
2022/03/02 07:48:36;;;;;;;134.30;59.90;;;;;;;16.29;27.29;93830.06;4814327;29;20073;-91
2022/03/02 07:51:04;;;;;;;148.32;72.43;;;;;;;16.32;27.70;93829.84;4791827;29;20046;-89
2022/03/02 07:53:42;;;;;;;152.50;77.05;;;;;;;16.33;28.11;93834.06;4805711;29;20053;-87
2022/03/02 07:56:08;;;;;;;128.88;73.45;;;;;;;16.31;29.59;93822.88;4805160;29;20042;-86
2022/03/02 07:58:35;;;;;;;154.73;81.47;;;;;;;16.39;28.72;93825.91;4814935;29;20053;-87
2022/03/02 08:01:00;;;;;;;143.70;74.18;;;;;;;16.36;28.83;93827.63;4894253;23;20071;-87
2022/03/02 08:03:27;;;;;;;159.75;78.15;;;;;;;16.40;28.28;93828.16;4886834;29;20116;-95
2022/03/02 08:05:56;;;;;;;155.75;74.32;;;;;;;16.41;28.34;93832.38;4864177;29;20051;-88
2022/03/02 08:08:22;;;;;;;202.30;75.72;;;;;;;16.41;28.37;93831.63;4877770;29;20040;-89
2022/03/02 08:10:47;;;;;;;190.10;75.43;;;;;;;16.37;28.32;93836.56;4876178;29;20150;-89
2022/03/02 08:13:14;;;;;;;150.10;67.97;;;;;;;16.37;27.87;93831.84;4887055;29;20033;-93
2022/03/02 08:15:40;;;;;;;146.30;72.43;;;;;;;16.32;27.96;93829.84;4878412;29;20059;-91
2022/03/02 08:18:06;;;;;;;157.43;69.10;;;;;;;16.35;28.18;93831.59;4846214;29;20047;-91
2022/03/02 08:20:34;;;;;;;142.68;65.95;;;;;;;16.40;28.21;93830.13;4868597;29;20131;-88
2022/03/02 08:23:00;;;;;;;212.13;102.82;;;;;;;16.36;28.25;93824.16;4868928;29;20069;-91
2022/03/02 08:25:28;;;;;;;227.75;97.55;;;;;;;16.38;28.24;93830.63;4864443;29;20048;-92
2022/03/02 08:27:55;;;;;;;234.80;92.15;;;;;;;16.37;28.39;93828.38;4879942;29;20407;-92
2022/03/02 08:30:20;;;;;;;222.40;93.78;;;;;;;16.36;28.69;93818.69;4880164;29;20052;-92
2022/03/02 08:32:47;;;;;;;188.48;83.75;;;;;;;16.41;28.81;93829.66;4899963;29;20083;-87
2022/03/02 08:35:12;;;;;;;191.02;84.40;;;;;;;16.40;28.58;93827.41;4902162;28;20035;-92
2022/03/02 08:37:41;;;;;;;184.30;77.63;;;;;;;16.45;28.75;93826.69;4927399;29;20054;-91
2022/03/02 08:40:08;;;;;;;154.18;75.30;;;;;;;16.40;28.52;93817.25;4930844;29;20036;-94
2022/03/02 08:42:34;;;;;;;152.48;69.78;;;;;;;16.43;28.23;93816.28;4913378;29;20103;-90
2022/03/02 08:44:59;;;;;;;147.60;67.20;;;;;;;16.41;28.47;93815.25;4903444;29;20051;-92
2022/03/02 08:47:25;;;;;;;155.88;65.38;;;;;;;16.36;28.21;93816.72;4938812;29;20035;-88
2022/03/02 08:49:56;;;;;;;133.65;61.17;;;;;;;16.36;28.21;93807.78;4908747;29;20102;-88
2022/03/02 08:52:26;;;;;;;125.07;60.00;;;;;;;16.35;28.05;93806.28;4932913;29;20469;-92
2022/03/02 08:54:52;;;;;;;124.30;59.05;;;;;;;16.42;28.41;93805.84;4922611;29;20039;-91
2022/03/02 08:57:18;;;;;;;135.20;62.25;;;;;;;16.35;28.32;93790.66;4908131;29;20035;-90
2022/03/02 08:59:43;;;;;;;125.95;53.38;;;;;;;16.35;27.73;93801.56;4908412;29;20035;-87
2022/03/02 09:02:08;;;;;;;135.77;56.22;;;;;;;16.35;27.83;93793.41;4922972;29;20039;-87
2022/03/02 09:04:35;;;;;;;131.27;51.40;;;;;;;16.36;27.91;93783.97;4940766;29;20786;-90
2022/03/02 09:07:06;;;;;;;116.32;50.45;;;;;;;16.42;28.23;93786.75;4927205;29;20055;-90
2022/03/02 09:09:33;;;;;;;114.88;52.47;;;;;;;16.39;28.04;93788.47;4934759;23;20066;-89
2022/03/02 09:11:58;;;;;;;129.98;53.60;;;;;;;16.40;28.86;93787.22;4942211;28;20047;-89
2022/03/02 09:14:24;;;;;;;124.50;52.40;;;;;;;16.41;28.67;93793.44;4924332;28;20075;-92
2022/03/02 09:16:50;;;;;;;111.20;51.13;;;;;;;16.40;28.45;93791.94;4904480;29;20078;-89
2022/03/02 09:19:16;;;;;;;103.88;51.72;;;;;;;16.41;29.21;93786.00;4907882;29;20039;-86
2022/03/02 09:21:43;;;;;;;113.68;54.47;;;;;;;16.43;28.69;93785.50;4952968;28;20049;-91
2022/03/02 09:24:11;;;;;;;111.70;54.00;;;;;;;16.43;28.89;93780.06;4933667;29;20047;-87
2022/03/02 09:26:38;;;;;;;114.40;55.38;;;;;;;16.42;28.92;93781.28;4942129;29;20050;-86
2022/03/02 09:29:05;;;;;;;102.93;48.50;;;;;;;16.43;28.74;93788.22;4935968;29;20047;-86
2022/03/02 09:31:32;;;;;;;99.65;47.22;;;;;;;16.43;28.80;93780.78;4903023;29;20043;-90
2022/03/02 09:33:58;;;;;;;104.28;49.20;;;;;;;16.43;28.93;93788.22;4911624;29;20039;-94
2022/03/02 09:36:25;;;;;;;102.47;50.53;;;;;;;16.41;28.88;93775.06;4892763;29;20047;-88
2022/03/02 09:38:51;;;;;;;98.35;48.33;;;;;;;16.45;28.79;93778.31;4939318;29;20470;-90
2022/03/02 09:41:23;;;;;;;124.55;50.75;;;;;;;16.44;29.03;93774.09;4929254;29;20058;-88
2022/03/02 09:43:50;;;;;;;110.95;48.53;;;;;;;16.47;28.98;93772.34;4940480;29;20098;-85
2022/03/02 09:46:17;;;;;;;105.07;48.20;;;;;;;16.45;29.02;93761.22;4938937;29;20128;-87
2022/03/02 09:48:49;;;;;;;106.97;47.22;;;;;;;16.47;29.28;93766.91;4937299;29;20055;-87
2022/03/02 09:51:21;;;;;;;86.97;44.90;;;;;;;16.45;29.28;93761.94;4917553;29;20039;-87
2022/03/02 09:53:48;;;;;;;86.47;43.30;;;;;;;16.45;29.05;93761.94;4927070;29;20124;-89
2022/03/02 09:56:14;;;;;;;114.43;46.85;;;;;;;16.48;29.46;93752.03;4916137;29;20039;-88
2022/03/02 09:58:40;;;;;;;99.50;47.17;;;;;;;16.49;29.10;93760.94;4919222;29;20525;-88
2022/03/02 10:01:16;;;;;;;106.53;46.92;;;;;;;16.48;29.52;93756.72;4932885;29;20039;-91
2022/03/02 10:03:45;;;;;;;116.00;57.78;;;;;;;16.49;29.50;93748.06;4904358;29;20589;-88
2022/03/02 10:06:11;;;;;;;133.63;58.63;;;;;;;16.49;29.06;93750.03;4924533;29;20051;-92
2022/03/02 10:08:39;;;;;;;149.18;70.68;;;;;;;16.51;29.39;93753.78;4932282;29;20045;-91
2022/03/02 10:11:05;;;;;;;124.68;60.55;;;;;;;16.52;29.42;93754.53;4917079;29;20047;-90
2022/03/02 10:13:32;;;;;;;147.75;72.35;;;;;;;16.51;29.44;93744.84;4902650;29;20040;-88
2022/03/02 10:15:58;;;;;;;132.00;63.85;;;;;;;16.51;29.06;93753.03;4917935;29;20078;-91
2022/03/02 10:18:25;;;;;;;124.60;61.05;;;;;;;16.51;29.23;93747.56;4924656;29;20031;-91
2022/03/02 10:20:53;;;;;;;150.45;78.05;;;;;;;16.54;29.32;93741.13;4910411;29;20044;-93
2022/03/02 10:23:24;;;;;;;172.38;84.88;;;;;;;16.51;29.29;93748.31;4924100;29;20044;-92
2022/03/02 10:26:05;;;;;;;137.32;66.57;;;;;;;16.50;29.33;93735.91;4929941;29;20046;-86
2022/03/02 10:29:10;;;;;;;134.02;57.63;;;;;;;16.53;29.18;93731.44;4936024;29;20126;-91
2022/03/02 10:31:39;;;;;;;120.75;62.28;;;;;;;16.51;28.86;93740.13;4933266;29;20458;-89
2022/03/02 10:34:25;;;;;;;232.07;105.07;;;;;;;16.53;29.03;93720.53;4949599;29;20087;-88
2022/03/02 10:37:08;;;;;;;152.63;72.65;;;;;;;16.49;29.12;93718.03;4925053;29;20063;-86
2022/03/02 10:39:51;;;;;;;166.05;71.78;;;;;;;16.50;29.45;93719.53;4951629;29;20047;-87
2022/03/02 10:42:23;;;;;;;196.50;82.03;;;;;;;16.50;29.33;93714.06;4930016;29;20047;-91
2022/03/02 10:45:13;;;;;;;199.27;78.13;;;;;;;16.52;29.37;93717.06;4905238;29;20103;-86
2022/03/02 10:47:47;;;;;;;163.77;70.93;;;;;;;16.49;29.55;93718.03;4947399;28;20138;-87
2022/03/02 10:50:13;;;;;;;206.05;96.45;;;;;;;16.52;29.33;93719.03;4900489;29;20043;-91
2022/03/02 10:52:39;;;;;;;169.73;82.13;;;;;;;16.54;28.38;93714.59;4915656;29;20130;-90
2022/03/02 10:55:10;;;;;;;174.95;77.25;;;;;;;16.50;28.09;93710.59;4904366;28;20134;-88
2022/03/02 10:57:35;;;;;;;150.77;68.15;;;;;;;16.44;28.18;93702.41;4918647;29;20063;-92
2022/03/02 11:00:09;;;;;;;212.38;91.75;;;;;;;16.48;28.16;93707.63;4927964;29;20058;-86
2022/03/02 11:02:35;;;;;;;162.00;75.15;;;;;;;16.49;27.44;93709.84;4921855;29;20047;-87
2022/03/02 11:05:00;;;;;;;201.60;85.75;;;;;;;16.47;27.65;93690.50;4926445;23;20052;-90
2022/03/02 11:07:27;;;;;;;201.98;94.78;;;;;;;16.53;28.56;93687.78;4892574;29;20048;-88
2022/03/02 11:09:52;;;;;;;182.73;92.85;;;;;;;16.55;29.30;93686.06;4881385;29;20681;-90
2022/03/02 11:12:21;;;;;;;189.05;93.10;;;;;;;16.57;29.31;93691.03;4883967;29;20111;-90
2022/03/02 11:14:54;;;;;;;201.45;96.60;;;;;;;16.57;28.92;93685.56;4890422;29;20040;-90
2022/03/02 11:17:21;;;;;;;204.07;108.13;;;;;;;16.59;29.32;93680.38;4890784;29;20041;-91
2022/03/02 11:19:48;;;;;;;175.18;87.57;;;;;;;16.60;28.89;93685.34;4936281;23;20057;-90
2022/03/02 11:22:18;;;;;;;178.93;91.82;;;;;;;16.59;29.27;93683.84;4932396;23;20043;-91